sensor_id;sensor_type;location;lat;lon;timestamp;pressure;altitude;pressure_sealevel;temperature;humidity
16738;BME280;17906;47.684;10.806;2023-03-22T00:01:56;93141.72;;;2.45;96.70
16738;BME280;17906;47.684;10.806;2023-03-22T00:04:23;93146.88;;;2.40;96.31
16738;BME280;17906;47.684;10.806;2023-03-22T00:06:51;93142.91;;;2.36;97.17
16738;BME280;17906;47.684;10.806;2023-03-22T00:09:18;93135.94;;;2.35;97.51
16738;BME280;17906;47.684;10.806;2023-03-22T00:11:45;93130.38;;;2.36;97.59
16738;BME280;17906;47.684;10.806;2023-03-22T00:14:17;93136.31;;;2.25;98.24
16738;BME280;17906;47.684;10.806;2023-03-22T00:16:43;93127.09;;;2.41;97.16
16738;BME280;17906;47.684;10.806;2023-03-22T00:19:13;93121.31;;;2.31;98.16
16738;BME280;17906;47.684;10.806;2023-03-22T00:21:40;93129.53;;;2.29;99.02
16738;BME280;17906;47.684;10.806;2023-03-22T00:24:08;93118.25;;;2.41;98.23
16738;BME280;17906;47.684;10.806;2023-03-22T00:26:35;93116.19;;;2.43;98.86
16738;BME280;17906;47.684;10.806;2023-03-22T00:29:02;93113.13;;;2.46;98.66
16738;BME280;17906;47.684;10.806;2023-03-22T00:31:29;93110.84;;;2.43;98.95
16738;BME280;17906;47.684;10.806;2023-03-22T00:33:55;93102.63;;;2.44;98.61
16738;BME280;17906;47.684;10.806;2023-03-22T00:36:22;93109.81;;;2.44;99.38
16738;BME280;17906;47.684;10.806;2023-03-22T00:38:48;93096.09;;;2.60;98.59
16738;BME280;17906;47.684;10.806;2023-03-22T00:41:19;93091.13;;;2.63;97.72
16738;BME280;17906;47.684;10.806;2023-03-22T00:43:47;93096.31;;;2.72;97.40
16738;BME280;17906;47.684;10.806;2023-03-22T00:46:16;93088.47;;;2.77;96.84
16738;BME280;17906;47.684;10.806;2023-03-22T00:48:43;93087.03;;;2.74;96.77
16738;BME280;17906;47.684;10.806;2023-03-22T00:51:10;93074.47;;;2.75;96.60
16738;BME280;17906;47.684;10.806;2023-03-22T00:53:37;93083.13;;;2.63;97.08
16738;BME280;17906;47.684;10.806;2023-03-22T00:56:05;93070.53;;;2.57;97.42
16738;BME280;17906;47.684;10.806;2023-03-22T00:58:33;93070.94;;;2.54;97.12
16738;BME280;17906;47.684;10.806;2023-03-22T01:00:59;93065.81;;;2.59;96.98
16738;BME280;17906;47.684;10.806;2023-03-22T01:03:26;93084.13;;;2.56;97.27
16738;BME280;17906;47.684;10.806;2023-03-22T01:05:53;93059.44;;;2.60;97.10
16738;BME280;17906;47.684;10.806;2023-03-22T01:08:20;93068.69;;;2.64;97.09
16738;BME280;17906;47.684;10.806;2023-03-22T01:10:47;93059.84;;;2.64;97.21
16738;BME280;17906;47.684;10.806;2023-03-22T01:13:14;93062.31;;;2.65;97.29
16738;BME280;17906;47.684;10.806;2023-03-22T01:15:42;93053.47;;;2.72;96.42
16738;BME280;17906;47.684;10.806;2023-03-22T01:18:09;93056.16;;;2.78;96.21
16738;BME280;17906;47.684;10.806;2023-03-22T01:20:35;93053.06;;;2.75;96.77
16738;BME280;17906;47.684;10.806;2023-03-22T01:23:02;93057.38;;;2.69;97.99
16738;BME280;17906;47.684;10.806;2023-03-22T01:25:29;93053.28;;;2.73;98.67
16738;BME280;17906;47.684;10.806;2023-03-22T01:27:56;93054.69;;;2.69;97.79
16738;BME280;17906;47.684;10.806;2023-03-22T01:30:22;93049.97;;;2.71;97.65
16738;BME280;17906;47.684;10.806;2023-03-22T01:32:50;93044.00;;;2.69;98.23
16738;BME280;17906;47.684;10.806;2023-03-22T01:35:17;93032.47;;;2.75;98.54
16738;BME280;17906;47.684;10.806;2023-03-22T01:37:43;93037.81;;;2.75;98.60
16738;BME280;17906;47.684;10.806;2023-03-22T01:40:11;93039.69;;;2.81;97.24
16738;BME280;17906;47.684;10.806;2023-03-22T01:42:38;93032.06;;;2.85;98.00
16738;BME280;17906;47.684;10.806;2023-03-22T01:45:39;93036.38;;;2.92;97.70
16738;BME280;17906;47.684;10.806;2023-03-22T01:48:12;93040.72;;;2.93;98.33
16738;BME280;17906;47.684;10.806;2023-03-22T01:50:43;93032.25;;;2.97;98.38
16738;BME280;17906;47.684;10.806;2023-03-22T01:53:13;93038.66;;;2.96;98.02
16738;BME280;17906;47.684;10.806;2023-03-22T01:55:44;93042.97;;;2.97;97.80
16738;BME280;17906;47.684;10.806;2023-03-22T01:58:11;93036.38;;;2.92;98.38
16738;BME280;17906;47.684;10.806;2023-03-22T02:00:40;93042.78;;;2.85;98.53
16738;BME280;17906;47.684;10.806;2023-03-22T02:03:09;93037.63;;;2.63;100.00
16738;BME280;17906;47.684;10.806;2023-03-22T02:05:36;93040.91;;;2.52;100.00
16738;BME280;17906;47.684;10.806;2023-03-22T02:08:04;93044.41;;;2.53;100.00
16738;BME280;17906;47.684;10.806;2023-03-22T02:10:33;93042.34;;;2.68;99.82
16738;BME280;17906;47.684;10.806;2023-03-22T02:13:14;93034.13;;;2.70;97.68
16738;BME280;17906;47.684;10.806;2023-03-22T02:15:48;93038.22;;;2.79;97.54
16738;BME280;17906;47.684;10.806;2023-03-22T02:18:37;93035.56;;;2.79;96.82
16738;BME280;17906;47.684;10.806;2023-03-22T02:21:39;93036.19;;;2.94;97.29
16738;BME280;17906;47.684;10.806;2023-03-22T02:24:32;93045.03;;;2.88;98.24
16738;BME280;17906;47.684;10.806;2023-03-22T02:27:21;93033.72;;;2.92;97.85
16738;BME280;17906;47.684;10.806;2023-03-22T02:29:57;93037.41;;;2.98;97.44
16738;BME280;17906;47.684;10.806;2023-03-22T02:32:51;93043.59;;;2.99;97.51
16738;BME280;17906;47.684;10.806;2023-03-22T02:35:48;93042.34;;;3.01;98.30
16738;BME280;17906;47.684;10.806;2023-03-22T02:38:48;93037.63;;;3.03;97.91
16738;BME280;17906;47.684;10.806;2023-03-22T02:41:20;93031.84;;;3.00;97.74
16738;BME280;17906;47.684;10.806;2023-03-22T02:43:58;93034.50;;;2.80;98.98
16738;BME280;17906;47.684;10.806;2023-03-22T02:46:34;93031.03;;;2.86;98.71
16738;BME280;17906;47.684;10.806;2023-03-22T02:49:06;93024.03;;;2.85;98.50
16738;BME280;17906;47.684;10.806;2023-03-22T02:51:41;93036.38;;;2.79;97.25
16738;BME280;17906;47.684;10.806;2023-03-22T02:54:12;93029.38;;;2.85;96.93
16738;BME280;17906;47.684;10.806;2023-03-22T02:56:45;93036.16;;;2.54;99.28
16738;BME280;17906;47.684;10.806;2023-03-22T02:59:16;93034.53;;;2.60;99.17
16738;BME280;17906;47.684;10.806;2023-03-22T03:01:48;93024.44;;;2.62;99.44
16738;BME280;17906;47.684;10.806;2023-03-22T03:04:19;93027.94;;;2.69;98.80
16738;BME280;17906;47.684;10.806;2023-03-22T03:06:48;93027.75;;;2.71;99.24
16738;BME280;17906;47.684;10.806;2023-03-22T03:09:18;93027.94;;;2.69;99.56
16738;BME280;17906;47.684;10.806;2023-03-22T03:11:47;93023.81;;;2.67;99.74
16738;BME280;17906;47.684;10.806;2023-03-22T03:14:22;93026.50;;;2.67;100.00
16738;BME280;17906;47.684;10.806;2023-03-22T03:17:04;93027.13;;;2.75;99.03
16738;BME280;17906;47.684;10.806;2023-03-22T03:19:34;93036.38;;;2.79;99.17
16738;BME280;17906;47.684;10.806;2023-03-22T03:22:22;93029.81;;;2.82;98.65
16738;BME280;17906;47.684;10.806;2023-03-22T03:24:56;93042.13;;;2.43;100.00
16738;BME280;17906;47.684;10.806;2023-03-22T03:27:31;93037.16;;;2.33;100.00
16738;BME280;17906;47.684;10.806;2023-03-22T03:30:04;93033.84;;;2.12;100.00
16738;BME280;17906;47.684;10.806;2023-03-22T03:32:38;93035.94;;;2.29;100.00
16738;BME280;17906;47.684;10.806;2023-03-22T03:35:09;93041.09;;;2.38;100.00
16738;BME280;17906;47.684;10.806;2023-03-22T03:37:44;93037.19;;;2.27;100.00
16738;BME280;17906;47.684;10.806;2023-03-22T03:40:18;93038.97;;;2.13;100.00
16738;BME280;17906;47.684;10.806;2023-03-22T03:42:48;93046.22;;;2.32;100.00
16738;BME280;17906;47.684;10.806;2023-03-22T03:45:17;93050.34;;;2.35;99.61
16738;BME280;17906;47.684;10.806;2023-03-22T03:47:47;93046.84;;;2.34;99.36
16738;BME280;17906;47.684;10.806;2023-03-22T03:50:19;93047.88;;;2.27;99.94
16738;BME280;17906;47.684;10.806;2023-03-22T03:52:46;93049.25;;;2.10;100.00
16738;BME280;17906;47.684;10.806;2023-03-22T03:55:15;93057.25;;;2.03;100.00
16738;BME280;17906;47.684;10.806;2023-03-22T03:57:41;93050.69;;;2.05;100.00
16738;BME280;17906;47.684;10.806;2023-03-22T04:00:09;93049.66;;;2.00;100.00
16738;BME280;17906;47.684;10.806;2023-03-22T04:02:36;93049.47;;;2.08;100.00
16738;BME280;17906;47.684;10.806;2023-03-22T04:05:02;93055.66;;;2.15;100.00
16738;BME280;17906;47.684;10.806;2023-03-22T04:07:29;93049.50;;;2.21;99.30
16738;BME280;17906;47.684;10.806;2023-03-22T04:09:56;93048.47;;;2.22;99.14
16738;BME280;17906;47.684;10.806;2023-03-22T04:12:23;93055.00;;;2.00;98.38
16738;BME280;17906;47.684;10.806;2023-03-22T04:14:50;93044.22;;;1.80;100.00
16738;BME280;17906;47.684;10.806;2023-03-22T04:17:17;93051.03;;;1.83;100.00
16738;BME280;17906;47.684;10.806;2023-03-22T04:19:43;93053.72;;;1.89;100.00
16738;BME280;17906;47.684;10.806;2023-03-22T04:22:10;93049.16;;;1.76;99.20
16738;BME280;17906;47.684;10.806;2023-03-22T04:24:39;93042.16;;;1.82;98.99
16738;BME280;17906;47.684;10.806;2023-03-22T04:27:05;93046.72;;;1.88;98.29
16738;BME280;17906;47.684;10.806;2023-03-22T04:29:35;93046.53;;;1.83;97.87
16738;BME280;17906;47.684;10.806;2023-03-22T04:32:02;93046.91;;;1.80;98.02
16738;BME280;17906;47.684;10.806;2023-03-22T04:34:28;93051.66;;;1.85;97.82
16738;BME280;17906;47.684;10.806;2023-03-22T04:36:56;93048.34;;;1.76;97.37
16738;BME280;17906;47.684;10.806;2023-03-22T04:39:26;93052.25;;;1.73;97.42
16738;BME280;17906;47.684;10.806;2023-03-22T04:41:53;93045.56;;;1.56;97.66
16738;BME280;17906;47.684;10.806;2023-03-22T04:44:19;93052.16;;;1.60;96.93
16738;BME280;17906;47.684;10.806;2023-03-22T04:46:48;93054.56;;;1.48;96.65
16738;BME280;17906;47.684;10.806;2023-03-22T04:49:14;93044.72;;;1.49;96.20
16738;BME280;17906;47.684;10.806;2023-03-22T04:51:41;93042.84;;;1.43;96.82
16738;BME280;17906;47.684;10.806;2023-03-22T04:54:07;93038.00;;;1.25;99.32
16738;BME280;17906;47.684;10.806;2023-03-22T04:56:34;93035.97;;;1.27;99.66
16738;BME280;17906;47.684;10.806;2023-03-22T04:59:01;93034.09;;;1.21;97.17
16738;BME280;17906;47.684;10.806;2023-03-22T05:01:27;93035.22;;;1.05;97.69
16738;BME280;17906;47.684;10.806;2023-03-22T05:03:55;93037.00;;;0.92;98.37
16738;BME280;17906;47.684;10.806;2023-03-22T05:06:22;93038.34;;;0.81;97.51
16738;BME280;17906;47.684;10.806;2023-03-22T05:08:48;93036.09;;;0.78;99.73
16738;BME280;17906;47.684;10.806;2023-03-22T05:11:16;93036.66;;;0.73;99.85
16738;BME280;17906;47.684;10.806;2023-03-22T05:13:43;93045.84;;;0.64;98.19
16738;BME280;17906;47.684;10.806;2023-03-22T05:16:10;93040.09;;;0.67;99.02
16738;BME280;17906;47.684;10.806;2023-03-22T05:18:37;93045.38;;;0.60;99.21
16738;BME280;17906;47.684;10.806;2023-03-22T05:21:10;93055.22;;;0.60;98.08
16738;BME280;17906;47.684;10.806;2023-03-22T05:23:38;93058.72;;;0.60;98.70
16738;BME280;17906;47.684;10.806;2023-03-22T05:26:04;93049.97;;;0.45;97.95
16738;BME280;17906;47.684;10.806;2023-03-22T05:28:33;93052.78;;;0.37;100.00
16738;BME280;17906;47.684;10.806;2023-03-22T05:31:00;93057.97;;;0.24;98.39
16738;BME280;17906;47.684;10.806;2023-03-22T05:33:27;93060.06;;;0.07;96.57
16738;BME280;17906;47.684;10.806;2023-03-22T05:35:54;93073.81;;;-0.11;95.43
16738;BME280;17906;47.684;10.806;2023-03-22T05:38:22;93062.16;;;-0.10;96.42
16738;BME280;17906;47.684;10.806;2023-03-22T05:40:49;93069.81;;;-0.36;96.97
16738;BME280;17906;47.684;10.806;2023-03-22T05:43:16;93078.25;;;-0.18;98.71
16738;BME280;17906;47.684;10.806;2023-03-22T05:45:42;93070.00;;;-0.23;100.00
16738;BME280;17906;47.684;10.806;2023-03-22T05:48:09;93067.28;;;-0.08;99.46
16738;BME280;17906;47.684;10.806;2023-03-22T05:50:37;93073.38;;;0.07;98.24
16738;BME280;17906;47.684;10.806;2023-03-22T05:53:03;93070.28;;;0.25;96.57
16738;BME280;17906;47.684;10.806;2023-03-22T05:55:31;93066.88;;;0.31;98.40
16738;BME280;17906;47.684;10.806;2023-03-22T05:57:58;93082.16;;;0.44;97.37
16738;BME280;17906;47.684;10.806;2023-03-22T06:00:26;93068.94;;;0.57;96.58
16738;BME280;17906;47.684;10.806;2023-03-22T06:02:56;93067.38;;;0.90;95.02
16738;BME280;17906;47.684;10.806;2023-03-22T06:05:28;93066.41;;;1.33;94.48
16738;BME280;17906;47.684;10.806;2023-03-22T06:07:55;93065.06;;;1.98;90.88
16738;BME280;17906;47.684;10.806;2023-03-22T06:10:22;93058.22;;;2.70;86.09
16738;BME280;17906;47.684;10.806;2023-03-22T06:12:52;93058.13;;;3.69;82.27
16738;BME280;17906;47.684;10.806;2023-03-22T06:15:19;93059.09;;;4.32;78.17
16738;BME280;17906;47.684;10.806;2023-03-22T06:17:45;93049.78;;;4.66;76.44
16738;BME280;17906;47.684;10.806;2023-03-22T06:20:12;93058.25;;;4.95;74.81
16738;BME280;17906;47.684;10.806;2023-03-22T06:22:40;93045.31;;;5.10;74.32
16738;BME280;17906;47.684;10.806;2023-03-22T06:25:08;93047.28;;;5.21;74.49
16738;BME280;17906;47.684;10.806;2023-03-22T06:27:35;93050.78;;;5.83;72.68
16738;BME280;17906;47.684;10.806;2023-03-22T06:30:03;93043.56;;;5.84;72.22
16738;BME280;17906;47.684;10.806;2023-03-22T06:32:30;93039.16;;;6.38;70.76
16738;BME280;17906;47.684;10.806;2023-03-22T06:34:56;93040.66;;;6.94;68.11
16738;BME280;17906;47.684;10.806;2023-03-22T06:37:23;93040.22;;;7.20;67.24
16738;BME280;17906;47.684;10.806;2023-03-22T06:39:50;93035.66;;;7.68;66.66
16738;BME280;17906;47.684;10.806;2023-03-22T06:42:17;93039.53;;;7.83;66.52
16738;BME280;17906;47.684;10.806;2023-03-22T06:44:44;93036.88;;;8.35;64.32
16738;BME280;17906;47.684;10.806;2023-03-22T06:47:12;93036.88;;;8.35;64.32
16738;BME280;17906;47.684;10.806;2023-03-22T06:49:38;93024.53;;;9.13;62.18
16738;BME280;17906;47.684;10.806;2023-03-22T06:52:05;93034.13;;;9.38;60.34
16738;BME280;17906;47.684;10.806;2023-03-22T06:54:32;93032.72;;;9.18;61.06
16738;BME280;17906;47.684;10.806;2023-03-22T06:56:58;93037.47;;;9.28;59.36
16738;BME280;17906;47.684;10.806;2023-03-22T06:59:26;93029.53;;;9.38;58.22
16738;BME280;17906;47.684;10.806;2023-03-22T07:01:52;93032.72;;;9.35;59.31
16738;BME280;17906;47.684;10.806;2023-03-22T07:04:20;93034.16;;;9.54;58.17
16738;BME280;17906;47.684;10.806;2023-03-22T07:06:48;93030.44;;;9.77;55.99
16738;BME280;17906;47.684;10.806;2023-03-22T07:09:15;93037.53;;;9.83;56.59
16738;BME280;17906;47.684;10.806;2023-03-22T07:11:41;93035.09;;;9.82;55.34
16738;BME280;17906;47.684;10.806;2023-03-22T07:14:08;93030.06;;;10.07;56.84
16738;BME280;17906;47.684;10.806;2023-03-22T07:16:34;93029.63;;;10.86;52.93
16738;BME280;17906;47.684;10.806;2023-03-22T07:19:01;93027.22;;;11.44;50.68
16738;BME280;17906;47.684;10.806;2023-03-22T07:21:29;93028.91;;;11.87;48.96
16738;BME280;17906;47.684;10.806;2023-03-22T07:23:56;93027.59;;;11.95;49.21
16738;BME280;17906;47.684;10.806;2023-03-22T07:26:22;93027.69;;;12.57;46.24
16738;BME280;17906;47.684;10.806;2023-03-22T07:28:50;93027.22;;;12.86;46.46
16738;BME280;17906;47.684;10.806;2023-03-22T07:31:17;93024.56;;;13.01;46.27
16738;BME280;17906;47.684;10.806;2023-03-22T07:33:44;93018.56;;;13.09;45.21
16738;BME280;17906;47.684;10.806;2023-03-22T07:36:10;93023.56;;;13.53;44.26
16738;BME280;17906;47.684;10.806;2023-03-22T07:38:38;59087.34;;;-146.04;100.00
16738;BME280;17906;47.684;10.806;2023-03-22T07:41:05;93020.28;;;13.91;44.59
16738;BME280;17906;47.684;10.806;2023-03-22T07:43:32;93023.69;;;14.68;40.82
16738;BME280;17906;47.684;10.806;2023-03-22T07:45:58;93018.41;;;14.87;41.41
16738;BME280;17906;47.684;10.806;2023-03-22T07:48:25;93025.47;;;14.93;40.45
16738;BME280;17906;47.684;10.806;2023-03-22T07:50:54;93017.59;;;14.87;39.99
16738;BME280;17906;47.684;10.806;2023-03-22T07:53:21;93015.78;;;15.16;40.72
16738;BME280;17906;47.684;10.806;2023-03-22T07:55:49;93005.91;;;15.25;39.77
16738;BME280;17906;47.684;10.806;2023-03-22T07:58:15;93016.28;;;15.73;38.90
16738;BME280;17906;47.684;10.806;2023-03-22T08:00:42;93019.09;;;15.57;38.38
16738;BME280;17906;47.684;10.806;2023-03-22T08:03:09;93019.00;;;15.73;38.81
16738;BME280;17906;47.684;10.806;2023-03-22T08:05:39;93022.25;;;16.09;38.04
16738;BME280;17906;47.684;10.806;2023-03-22T08:08:05;93019.91;;;16.26;39.31
16738;BME280;17906;47.684;10.806;2023-03-22T08:10:32;93022.00;;;16.34;36.73
16738;BME280;17906;47.684;10.806;2023-03-22T08:13:00;93013.25;;;16.37;38.13
16738;BME280;17906;47.684;10.806;2023-03-22T08:15:26;93019.25;;;15.76;38.51
16738;BME280;17906;47.684;10.806;2023-03-22T08:17:55;93017.16;;;15.19;38.89
16738;BME280;17906;47.684;10.806;2023-03-22T08:20:22;93024.00;;;15.60;38.23
16738;BME280;17906;47.684;10.806;2023-03-22T08:22:50;93024.41;;;15.83;38.30
16738;BME280;17906;47.684;10.806;2023-03-22T08:25:16;93020.88;;;16.40;36.87
16738;BME280;17906;47.684;10.806;2023-03-22T08:27:43;93027.19;;;16.36;36.93
16738;BME280;17906;47.684;10.806;2023-03-22T08:30:13;93018.00;;;16.98;37.17
16738;BME280;17906;47.684;10.806;2023-03-22T08:32:40;93016.50;;;16.87;35.70
16738;BME280;17906;47.684;10.806;2023-03-22T08:35:07;93019.56;;;17.47;35.69
16738;BME280;17906;47.684;10.806;2023-03-22T08:37:34;93013.41;;;17.55;34.80
16738;BME280;17906;47.684;10.806;2023-03-22T08:40:00;93013.03;;;17.81;34.04
16738;BME280;17906;47.684;10.806;2023-03-22T08:42:31;93012.28;;;18.08;33.64
16738;BME280;17906;47.684;10.806;2023-03-22T08:44:57;93017.69;;;17.80;34.27
16738;BME280;17906;47.684;10.806;2023-03-22T08:47:25;93019.06;;;17.21;34.08
16738;BME280;17906;47.684;10.806;2023-03-22T08:49:52;93021.19;;;17.48;33.96
16738;BME280;17906;47.684;10.806;2023-03-22T08:52:18;93015.91;;;17.71;33.51
16738;BME280;17906;47.684;10.806;2023-03-22T08:54:45;93009.53;;;19.00;31.53
16738;BME280;17906;47.684;10.806;2023-03-22T08:57:11;93009.34;;;19.96;29.70
16738;BME280;17906;47.684;10.806;2023-03-22T08:59:39;59087.34;;;-146.04;100.00
16738;BME280;17906;47.684;10.806;2023-03-22T09:02:05;59087.34;;;-146.04;100.00
16738;BME280;17906;47.684;10.806;2023-03-22T09:04:33;59087.34;;;-146.04;100.00
16738;BME280;17906;47.684;10.806;2023-03-22T09:07:00;92993.03;;;20.84;28.05
16738;BME280;17906;47.684;10.806;2023-03-22T09:09:26;92990.22;;;20.76;28.38
16738;BME280;17906;47.684;10.806;2023-03-22T09:11:53;92988.19;;;20.99;27.31
16738;BME280;17906;47.684;10.806;2023-03-22T09:14:20;92990.13;;;21.55;26.43
16738;BME280;17906;47.684;10.806;2023-03-22T09:16:46;92990.13;;;21.55;26.43
16738;BME280;17906;47.684;10.806;2023-03-22T09:19:13;92988.84;;;20.96;29.28
16738;BME280;17906;47.684;10.806;2023-03-22T09:21:42;92982.84;;;21.02;28.96
16738;BME280;17906;47.684;10.806;2023-03-22T09:24:08;92990.53;;;21.23;28.83
16738;BME280;17906;47.684;10.806;2023-03-22T09:26:35;92992.91;;;21.55;27.50
16738;BME280;17906;47.684;10.806;2023-03-22T09:29:02;92978.56;;;21.27;28.10
16738;BME280;17906;47.684;10.806;2023-03-22T09:31:28;92981.75;;;20.64;27.66
16738;BME280;17906;47.684;10.806;2023-03-22T09:33:55;92978.06;;;20.77;28.45
16738;BME280;17906;47.684;10.806;2023-03-22T09:36:22;92977.22;;;21.07;29.04
16738;BME280;17906;47.684;10.806;2023-03-22T09:38:50;92963.38;;;22.08;26.81
16738;BME280;17906;47.684;10.806;2023-03-22T09:41:20;92969.69;;;21.39;27.63
16738;BME280;17906;47.684;10.806;2023-03-22T09:43:50;92966.31;;;21.59;27.85
16738;BME280;17906;47.684;10.806;2023-03-22T09:46:23;92971.22;;;20.66;26.87
16738;BME280;17906;47.684;10.806;2023-03-22T09:48:52;92969.06;;;21.51;26.56
16738;BME280;17906;47.684;10.806;2023-03-22T09:51:29;92962.41;;;21.78;25.35
16738;BME280;17906;47.684;10.806;2023-03-22T09:53:57;92951.34;;;21.86;27.01
16738;BME280;17906;47.684;10.806;2023-03-22T09:56:26;92956.72;;;21.57;28.49
16738;BME280;17906;47.684;10.806;2023-03-22T09:58:58;92946.16;;;21.67;28.33
16738;BME280;17906;47.684;10.806;2023-03-22T10:01:34;92956.78;;;20.38;27.87
16738;BME280;17906;47.684;10.806;2023-03-22T10:04:16;92952.53;;;20.94;27.67
16738;BME280;17906;47.684;10.806;2023-03-22T10:06:48;92946.31;;;20.48;27.90
16738;BME280;17906;47.684;10.806;2023-03-22T10:09:21;92936.50;;;21.13;27.44
16738;BME280;17906;47.684;10.806;2023-03-22T10:11:55;92932.38;;;21.50;25.55
16738;BME280;17906;47.684;10.806;2023-03-22T10:14:32;92935.94;;;21.68;26.00
16738;BME280;17906;47.684;10.806;2023-03-22T10:17:05;92929.44;;;21.64;26.64
16738;BME280;17906;47.684;10.806;2023-03-22T10:19:35;92937.63;;;20.95;29.12
16738;BME280;17906;47.684;10.806;2023-03-22T10:22:09;92923.66;;;20.82;26.24
16738;BME280;17906;47.684;10.806;2023-03-22T10:24:38;92920.03;;;20.73;28.17
16738;BME280;17906;47.684;10.806;2023-03-22T10:27:13;92924.75;;;20.42;28.50
16738;BME280;17906;47.684;10.806;2023-03-22T10:29:44;92919.75;;;20.92;27.27
16738;BME280;17906;47.684;10.806;2023-03-22T10:32:13;92920.38;;;20.72;25.96
16738;BME280;17906;47.684;10.806;2023-03-22T10:34:41;92925.09;;;20.89;29.22
16738;BME280;17906;47.684;10.806;2023-03-22T10:37:12;92918.84;;;20.57;26.55
16738;BME280;17906;47.684;10.806;2023-03-22T10:39:43;92919.09;;;20.47;26.12
16738;BME280;17906;47.684;10.806;2023-03-22T10:42:12;92920.56;;;20.84;26.12
16738;BME280;17906;47.684;10.806;2023-03-22T10:44:45;92911.00;;;20.90;27.92
16738;BME280;17906;47.684;10.806;2023-03-22T10:47:14;92905.72;;;20.54;28.93
16738;BME280;17906;47.684;10.806;2023-03-22T10:49:45;92919.56;;;20.09;27.74
16738;BME280;17906;47.684;10.806;2023-03-22T10:52:33;92914.31;;;19.99;27.20
16738;BME280;17906;47.684;10.806;2023-03-22T10:55:03;92911.00;;;20.11;26.08
16738;BME280;17906;47.684;10.806;2023-03-22T10:57:30;92910.06;;;19.70;28.98
16738;BME280;17906;47.684;10.806;2023-03-22T10:59:57;92906.50;;;19.70;27.67
16738;BME280;17906;47.684;10.806;2023-03-22T11:02:26;92905.22;;;20.21;27.83
16738;BME280;17906;47.684;10.806;2023-03-22T11:04:55;92906.25;;;20.03;28.25
16738;BME280;17906;47.684;10.806;2023-03-22T11:07:31;92899.75;;;20.30;28.37
16738;BME280;17906;47.684;10.806;2023-03-22T11:10:11;92905.50;;;20.11;27.33
16738;BME280;17906;47.684;10.806;2023-03-22T11:12:41;92896.84;;;20.35;27.16
16738;BME280;17906;47.684;10.806;2023-03-22T11:15:19;92895.78;;;20.13;26.97
16738;BME280;17906;47.684;10.806;2023-03-22T11:17:48;92896.16;;;20.20;27.31
16738;BME280;17906;47.684;10.806;2023-03-22T11:20:16;92893.16;;;19.77;31.22
16738;BME280;17906;47.684;10.806;2023-03-22T11:22:44;92885.88;;;19.81;28.54
16738;BME280;17906;47.684;10.806;2023-03-22T11:25:17;92884.44;;;19.61;29.75
16738;BME280;17906;47.684;10.806;2023-03-22T11:27:50;92885.13;;;20.20;31.00
16738;BME280;17906;47.684;10.806;2023-03-22T11:30:20;92884.00;;;19.90;29.85
16738;BME280;17906;47.684;10.806;2023-03-22T11:32:47;92880.44;;;19.23;30.80
16738;BME280;17906;47.684;10.806;2023-03-22T11:35:16;92884.47;;;19.25;30.01
16738;BME280;17906;47.684;10.806;2023-03-22T11:37:44;92875.78;;;19.09;32.15
16738;BME280;17906;47.684;10.806;2023-03-22T11:40:16;92861.28;;;19.62;29.93
16738;BME280;17906;47.684;10.806;2023-03-22T11:42:43;92865.56;;;19.46;31.92
16738;BME280;17906;47.684;10.806;2023-03-22T11:45:13;92872.44;;;19.35;32.06
16738;BME280;17906;47.684;10.806;2023-03-22T11:47:40;92865.88;;;19.45;31.21
16738;BME280;17906;47.684;10.806;2023-03-22T11:50:19;92869.78;;;19.07;32.92
16738;BME280;17906;47.684;10.806;2023-03-22T11:52:51;92868.59;;;19.00;32.50
16738;BME280;17906;47.684;10.806;2023-03-22T11:55:19;92870.16;;;19.15;30.93
16738;BME280;17906;47.684;10.806;2023-03-22T11:57:46;92865.38;;;19.20;32.13
16738;BME280;17906;47.684;10.806;2023-03-22T12:00:17;92861.91;;;18.65;30.78
16738;BME280;17906;47.684;10.806;2023-03-22T12:02:48;92855.47;;;18.83;32.59
16738;BME280;17906;47.684;10.806;2023-03-22T12:05:20;92859.19;;;19.15;33.40
16738;BME280;17906;47.684;10.806;2023-03-22T12:07:50;92843.66;;;18.96;33.75
16738;BME280;17906;47.684;10.806;2023-03-22T12:10:23;92848.41;;;19.04;32.88
16738;BME280;17906;47.684;10.806;2023-03-22T12:12:53;92841.00;;;19.05;35.43
16738;BME280;17906;47.684;10.806;2023-03-22T12:15:25;92835.28;;;18.51;33.98
16738;BME280;17906;47.684;10.806;2023-03-22T12:17:55;92840.66;;;17.88;33.95
16738;BME280;17906;47.684;10.806;2023-03-22T12:20:34;92836.84;;;18.16;33.42
16738;BME280;17906;47.684;10.806;2023-03-22T12:23:10;92829.81;;;18.51;33.56
16738;BME280;17906;47.684;10.806;2023-03-22T12:25:39;92823.22;;;18.25;35.13
16738;BME280;17906;47.684;10.806;2023-03-22T12:28:10;92826.28;;;18.23;32.76
16738;BME280;17906;47.684;10.806;2023-03-22T12:30:42;92819.66;;;18.11;32.82
16738;BME280;17906;47.684;10.806;2023-03-22T12:33:15;92819.88;;;18.28;34.65
16738;BME280;17906;47.684;10.806;2023-03-22T12:35:45;92815.22;;;18.65;33.37
16738;BME280;17906;47.684;10.806;2023-03-22T12:38:21;92819.34;;;17.85;31.76
16738;BME280;17906;47.684;10.806;2023-03-22T12:40:52;92817.91;;;17.74;33.57
16738;BME280;17906;47.684;10.806;2023-03-22T12:43:32;92805.53;;;17.90;34.21
16738;BME280;17906;47.684;10.806;2023-03-22T12:46:03;92803.91;;;18.03;34.99
16738;BME280;17906;47.684;10.806;2023-03-22T12:48:35;92800.44;;;17.83;34.52
16738;BME280;17906;47.684;10.806;2023-03-22T12:51:05;92810.50;;;17.28;35.34
16738;BME280;17906;47.684;10.806;2023-03-22T12:53:35;92794.41;;;16.89;34.13
16738;BME280;17906;47.684;10.806;2023-03-22T12:56:09;92793.41;;;17.17;34.45
16738;BME280;17906;47.684;10.806;2023-03-22T12:58:38;92782.53;;;17.45;36.47
16738;BME280;17906;47.684;10.806;2023-03-22T13:01:16;92781.25;;;17.83;37.70
16738;BME280;17906;47.684;10.806;2023-03-22T13:03:46;92767.97;;;17.90;36.53
16738;BME280;17906;47.684;10.806;2023-03-22T13:06:29;92773.53;;;17.85;35.22
16738;BME280;17906;47.684;10.806;2023-03-22T13:09:04;92763.19;;;17.82;36.50